Terminal Aerodrome Forecast
Issued by NWS Mt. Holly, NJ

Home | Current Version | Previous Version | Text Only | Print | Product List | Glossary On
Versions: 1 2 3 4 5 6 7 8 9 10 11 12 13 14 15 16 17 18 19 20
000
FTUS41 KPHI 282343
TAFACY
TAF
KACY 282343Z 2900/2924 17006KT P6SM BKN100
     FM290200 VRB03KT P6SM SCT250
     FM290500 VRB03KT 4SM BR SCT009
      TEMPO 2907/2910 1SM BR SCT010
     FM291300 20009KT P6SM SCT045=

USA.gov is the U.S. government's official web portal to all federal, state and local government web resources and services.